Time;durP1;ratioP1;P1;durP2;ratioP2;P2;SDS_P1;SDS_P2;PMS_P1;PMS_P2;Temp;Humidity;BMP_temperature;BMP_pressure;BME280_temperature;BME280_humidity;BME280_pressure;Samples;Min_cycle;Max_cycle;Signal;HPM_P1;HPM_P2
2022/04/28 00:01:56;;;;;;;4.03;2.40;;;;;;;7.41;76.58;103025.56;5030600;28;20510;-72
2022/04/28 00:04:22;;;;;;;2.95;2.10;;;;;;;7.38;76.32;103026.41;5031502;28;20036;-72
2022/04/28 00:06:47;;;;;;;4.15;2.22;;;;;;;7.37;76.18;103027.28;5028555;28;20025;-72
2022/04/28 00:09:13;;;;;;;4.80;2.50;;;;;;;7.36;76.10;103028.19;5027463;28;20316;-72
2022/04/28 00:11:39;;;;;;;5.63;2.75;;;;;;;7.34;76.35;103024.63;5029616;28;20282;-72
2022/04/28 00:14:07;;;;;;;4.25;2.47;;;;;;;7.31;77.20;103032.53;5025146;28;20124;-72
2022/04/28 00:16:35;;;;;;;3.72;2.67;;;;;;;7.30;76.94;103030.78;5027008;28;20028;-73
2022/04/28 00:19:03;;;;;;;6.57;2.50;;;;;;;7.30;77.29;103028.16;5026604;28;20032;-73
2022/04/28 00:21:29;;;;;;;5.25;2.70;;;;;;;7.31;76.81;103032.53;5028909;28;20449;-73
2022/04/28 00:23:55;;;;;;;4.97;2.80;;;;;;;7.31;77.11;103027.28;5024122;28;20518;-72
2022/04/28 00:26:21;;;;;;;6.40;3.10;;;;;;;7.30;76.87;103030.78;5028583;28;20132;-72
2022/04/28 00:28:47;;;;;;;7.15;2.70;;;;;;;7.27;77.11;103028.13;5026623;28;20029;-72
2022/04/28 00:31:13;;;;;;;6.05;2.65;;;;;;;7.27;76.66;103023.75;5029292;28;20073;-72
2022/04/28 00:33:40;;;;;;;2.85;2.50;;;;;;;7.25;76.05;103024.63;5030710;28;20136;-72
2022/04/28 00:36:06;;;;;;;3.85;1.83;;;;;;;7.27;76.11;103021.13;5028533;28;20095;-72
2022/04/28 00:38:31;;;;;;;2.35;1.95;;;;;;;7.30;75.88;103020.25;5028555;28;20045;-72
2022/04/28 00:40:57;;;;;;;3.15;2.42;;;;;;;7.33;76.04;103025.50;5027684;28;20041;-72
2022/04/28 00:43:28;;;;;;;4.18;2.50;;;;;;;7.32;76.05;103015.84;5025683;28;20510;-72
2022/04/28 00:45:55;;;;;;;5.20;2.60;;;;;;;7.31;76.29;103024.63;5002071;28;20761;-72
2022/04/28 00:51:06;;;;;;;5.90;3.00;;;;;;;7.28;76.17;103035.16;5028468;28;20147;-72
2022/04/28 00:53:35;;;;;;;4.43;2.90;;;;;;;7.27;76.52;103036.94;5024759;28;20040;-72
2022/04/28 00:56:00;;;;;;;4.78;2.45;;;;;;;7.25;76.26;103029.88;5029189;28;20036;-71
2022/04/28 00:58:27;;;;;;;5.20;2.53;;;;;;;7.23;76.75;103034.28;5010439;28;20385;-72
2022/04/28 01:00:53;;;;;;;3.53;2.33;;;;;;;7.20;76.78;103033.38;5029239;28;20052;-72
2022/04/28 01:03:20;;;;;;;3.70;2.50;;;;;;;7.18;77.08;103035.13;5029695;28;20172;-72
2022/04/28 01:05:45;;;;;;;5.75;2.50;;;;;;;7.19;76.87;103039.53;5011267;28;20037;-73
2022/04/28 01:08:11;;;;;;;5.15;2.33;;;;;;;7.20;76.96;103038.63;5024603;28;20032;-72
2022/04/28 01:10:36;;;;;;;5.65;2.40;;;;;;;7.18;76.67;103045.66;5008694;28;20045;-72
2022/04/28 01:13:03;;;;;;;3.15;2.25;;;;;;;7.19;76.45;103046.53;5025244;28;20035;-72
2022/04/28 01:15:28;;;;;;;4.20;2.17;;;;;;;7.17;76.64;103043.03;5008936;28;20047;-73
2022/04/28 01:17:54;;;;;;;3.63;2.35;;;;;;;7.16;77.22;103047.44;4991841;28;21404;-72
2022/04/28 01:20:19;;;;;;;6.28;2.65;;;;;;;7.15;76.95;103040.38;5025879;28;20033;-72
2022/04/28 01:22:45;;;;;;;4.03;2.40;;;;;;;7.13;76.72;103050.03;5027751;28;20163;-72
2022/04/28 01:25:11;;;;;;;2.88;2.00;;;;;;;7.13;77.02;103054.44;5026137;28;20150;-71
2022/04/28 01:27:37;;;;;;;3.78;2.00;;;;;;;7.14;77.19;103049.16;5028195;28;21471;-72
2022/04/28 01:30:11;;;;;;;2.13;1.92;;;;;;;7.12;77.21;103048.28;5027635;28;20029;-73
2022/04/28 01:32:37;;;;;;;3.30;1.98;;;;;;;7.12;77.55;103048.28;5027632;28;20037;-73
2022/04/28 01:35:03;;;;;;;5.28;2.40;;;;;;;7.13;77.25;103049.16;5029078;28;21262;-72
2022/04/28 01:37:29;;;;;;;5.32;2.30;;;;;;;7.15;77.45;103044.78;5027745;28;20029;-73
2022/04/28 01:39:56;;;;;;;4.13;2.33;;;;;;;7.17;77.02;103050.91;5025266;28;20059;-73
2022/04/28 01:42:23;;;;;;;3.42;2.08;;;;;;;7.15;76.81;103044.78;5028834;28;20029;-73
2022/04/28 01:44:52;;;;;;;3.35;1.83;;;;;;;7.16;76.64;103055.34;5025176;28;20050;-73
2022/04/28 01:47:17;;;;;;;2.47;2.13;;;;;;;7.16;76.68;103051.81;5007542;28;20519;-72
2022/04/28 01:49:44;;;;;;;4.53;2.22;;;;;;;7.16;76.64;103052.69;5031372;28;20466;-71
2022/04/28 01:55:00;;;;;;;4.57;2.05;;;;;;;7.09;76.75;103050.00;5025059;28;20043;-72
2022/04/28 01:57:29;;;;;;;3.72;2.22;;;;;;;7.05;76.50;103054.38;5019379;28;20595;-72
2022/04/28 01:59:59;;;;;;;7.20;2.47;;;;;;;6.99;76.65;103052.63;4994620;28;20107;-72
2022/04/28 02:02:24;;;;;;;2.17;1.98;;;;;;;6.96;77.10;103054.34;5002996;28;20046;-72
2022/04/28 02:04:50;;;;;;;6.75;2.88;;;;;;;6.93;76.75;103057.84;4992968;28;20025;-72
2022/04/28 02:07:16;;;;;;;6.70;2.28;;;;;;;6.90;77.04;103061.34;4987464;28;20041;-72
2022/04/28 02:09:42;;;;;;;4.13;2.70;;;;;;;6.87;76.91;103066.56;4998473;28;20045;-73
2022/04/28 02:12:13;;;;;;;4.25;2.05;;;;;;;6.84;75.85;103060.41;5014232;28;20397;-73
2022/04/28 02:14:39;;;;;;;2.97;2.00;;;;;;;6.84;75.21;103056.03;5015501;28;20044;-72
2022/04/28 02:17:05;;;;;;;4.97;2.38;;;;;;;6.85;75.33;103057.78;4997953;28;20024;-72
2022/04/28 02:19:31;;;;;;;4.93;2.22;;;;;;;6.87;75.61;103063.06;5017628;28;20041;-73
2022/04/28 02:21:57;;;;;;;4.35;2.65;;;;;;;6.88;75.85;103063.09;5016526;28;20038;-72
2022/04/28 02:24:22;;;;;;;3.17;2.42;;;;;;;6.88;75.96;103063.09;5003233;28;20033;-73
2022/04/28 02:26:48;;;;;;;5.43;2.63;;;;;;;6.84;75.67;103061.31;5017158;28;20107;-71
2022/04/28 02:29:13;;;;;;;3.67;2.45;;;;;;;6.83;75.78;103064.81;4996711;28;20037;-72
2022/04/28 02:31:39;;;;;;;5.53;2.33;;;;;;;6.80;75.51;103064.78;5015509;28;20113;-72
2022/04/28 02:34:04;;;;;;;2.63;2.20;;;;;;;6.80;74.96;103062.16;5013702;28;20573;-72
2022/04/28 02:36:30;;;;;;;6.47;1.52;;;;;;;6.81;74.20;103056.00;5015052;28;20279;-72
2022/04/28 02:38:56;;;;;;;3.70;1.95;;;;;;;6.84;73.95;103056.03;5014079;28;20530;-72
2022/04/28 02:41:21;;;;;;;4.55;2.22;;;;;;;6.83;74.44;103053.38;5016552;28;20107;-72
2022/04/28 02:43:51;;;;;;;5.90;2.15;;;;;;;6.82;74.46;103063.06;5013839;28;20464;-72
2022/04/28 02:46:17;;;;;;;4.38;2.38;;;;;;;6.81;74.63;103057.78;4985771;28;20033;-72
2022/04/28 02:48:43;;;;;;;5.93;2.00;;;;;;;6.78;74.80;103056.91;5015189;28;20412;-72
2022/04/28 02:51:08;;;;;;;5.07;2.10;;;;;;;6.79;74.70;103055.13;5014096;28;20045;-72
2022/04/28 02:53:34;;;;;;;4.60;2.10;;;;;;;6.79;74.46;103060.38;5011866;28;20453;-72
2022/04/28 02:56:00;;;;;;;2.80;1.73;;;;;;;6.79;74.12;103055.13;4985375;28;20597;-72
2022/04/28 02:58:25;;;;;;;3.30;1.95;;;;;;;6.74;74.48;103047.19;4990539;28;20048;-72
2022/04/28 03:00:51;;;;;;;3.67;1.90;;;;;;;6.74;74.26;103043.69;5002071;28;20388;-72
2022/04/28 03:03:16;;;;;;;7.60;2.35;;;;;;;6.73;74.44;103044.56;4984606;28;20576;-71
2022/04/28 03:11:10;;;;;;;4.90;2.25;;;;;;;6.72;74.55;103032.25;5002776;28;20038;-73
2022/04/28 03:13:36;;;;;;;4.72;2.58;;;;;;;6.68;74.70;103028.72;5004279;28;20384;-73
2022/04/28 03:16:02;;;;;;;4.85;2.50;;;;;;;6.66;74.76;103026.09;4985358;28;20033;-73
2022/04/28 03:18:28;;;;;;;5.15;2.60;;;;;;;6.68;74.94;103027.84;4989671;28;20119;-72
2022/04/28 03:20:54;;;;;;;6.40;2.65;;;;;;;6.65;75.20;103029.59;5001882;28;20033;-73
2022/04/28 03:23:20;;;;;;;4.13;2.60;;;;;;;6.64;74.87;103032.22;4990742;28;20035;-73
2022/04/28 03:25:46;;;;;;;7.50;2.83;;;;;;;6.61;74.92;103032.19;5001400;28;20037;-72
2022/04/28 03:28:12;;;;;;;5.05;2.50;;;;;;;6.59;75.51;103037.44;5004492;28;21383;-72
2022/04/28 03:30:37;;;;;;;6.45;2.60;;;;;;;6.59;75.74;103040.09;4998698;28;20042;-73
2022/04/28 03:33:03;;;;;;;7.53;2.60;;;;;;;6.61;75.83;103037.47;4984947;28;20038;-72
2022/04/28 03:35:28;;;;;;;6.05;2.47;;;;;;;6.62;75.83;103040.13;5001723;28;20125;-72
2022/04/28 03:37:54;;;;;;;3.83;2.30;;;;;;;6.63;75.42;103039.25;5000965;28;20033;-72
2022/04/28 03:40:20;;;;;;;6.13;2.63;;;;;;;6.64;75.74;103042.75;5001326;28;20041;-72
2022/04/28 03:42:46;;;;;;;4.90;2.60;;;;;;;6.64;75.56;103041.00;4984797;28;20481;-72
2022/04/28 03:45:11;;;;;;;7.97;2.67;;;;;;;6.64;75.20;103042.75;4985875;28;20025;-72
2022/04/28 03:47:37;;;;;;;4.40;2.63;;;;;;;6.65;75.50;103049.78;4985156;28;20030;-72
2022/04/28 03:50:04;;;;;;;5.97;2.60;;;;;;;6.65;75.40;103042.75;4986037;28;20037;-72
2022/04/28 03:52:31;;;;;;;6.43;2.72;;;;;;;6.66;75.35;103047.16;5000759;28;20038;-72
2022/04/28 03:54:56;;;;;;;4.30;2.47;;;;;;;6.68;75.12;103044.53;5000100;28;20029;-73
2022/04/28 03:57:22;;;;;;;5.80;2.88;;;;;;;6.66;75.32;103041.88;4999573;28;20025;-73
2022/04/28 03:59:48;;;;;;;3.20;2.55;;;;;;;6.67;75.48;103040.13;5021508;28;20056;-73
2022/04/28 04:02:13;;;;;;;4.40;2.35;;;;;;;6.69;75.63;103042.78;5010788;28;20033;-73
2022/04/28 04:04:39;;;;;;;5.28;2.60;;;;;;;6.67;75.43;103032.25;5006857;28;20492;-73
2022/04/28 04:07:05;;;;;;;5.03;2.42;;;;;;;6.67;75.76;103032.25;5034296;22;20178;-72
2022/04/28 04:09:31;;;;;;;5.15;2.70;;;;;;;6.67;75.76;103032.25;5007016;28;20526;-73
2022/04/28 04:11:57;;;;;;;5.85;2.53;;;;;;;6.68;75.88;103038.38;5010885;28;20021;-73
2022/04/28 04:14:22;;;;;;;3.03;2.28;;;;;;;6.69;75.58;103032.25;5007348;28;20037;-73
2022/04/28 04:16:48;;;;;;;7.47;3.05;;;;;;;6.71;76.23;103043.66;4995461;28;20082;-73
2022/04/28 04:19:13;;;;;;;5.72;2.63;;;;;;;6.73;75.73;103036.66;5013794;28;20024;-75
2022/04/28 04:21:39;;;;;;;7.38;2.55;;;;;;;6.74;75.64;103034.03;5008516;28;20024;-72
2022/04/28 04:24:06;;;;;;;3.95;2.78;;;;;;;6.74;75.37;103038.41;5030201;28;20048;-72
2022/04/28 04:26:31;;;;;;;6.22;2.83;;;;;;;6.77;75.68;103043.72;5028841;28;20082;-73
2022/04/28 04:28:57;;;;;;;4.43;2.45;;;;;;;6.77;75.66;103035.81;5013804;28;20040;-73
2022/04/28 04:34:06;;;;;;;4.60;2.65;;;;;;;6.82;75.80;103047.25;5016500;28;20036;-72
2022/04/28 04:36:32;;;;;;;3.45;2.45;;;;;;;6.83;75.76;103043.75;5016703;28;20037;-72
2022/04/28 04:38:57;;;;;;;4.63;2.92;;;;;;;6.86;75.84;103043.75;5031672;28;20480;-72
2022/04/28 04:41:23;;;;;;;5.88;2.70;;;;;;;6.88;75.20;103051.66;5031987;28;20035;-72
2022/04/28 04:43:48;;;;;;;3.92;2.60;;;;;;;6.88;75.17;103043.78;5031326;28;20025;-72
2022/04/28 04:46:14;;;;;;;5.13;2.60;;;;;;;6.90;74.68;103050.81;5027747;28;20523;-72
2022/04/28 04:48:39;;;;;;;4.95;2.70;;;;;;;6.92;75.12;103051.69;5021727;28;20519;-73
2022/04/28 04:51:05;;;;;;;4.75;2.45;;;;;;;6.95;75.00;103058.72;5026102;28;20021;-73
2022/04/28 04:53:31;;;;;;;4.40;2.20;;;;;;;6.98;75.20;103061.38;5011775;28;20032;-73
2022/04/28 04:55:56;;;;;;;4.28;2.58;;;;;;;7.02;75.13;103065.78;5028411;28;20552;-71
2022/04/28 04:58:22;;;;;;;4.60;2.60;;;;;;;7.03;75.08;103064.03;5025082;28;20041;-72
2022/04/28 05:00:48;;;;;;;6.15;2.78;;;;;;;7.04;75.54;103068.44;5027760;28;20111;-72
2022/04/28 05:03:14;;;;;;;6.88;2.83;;;;;;;7.04;75.62;103078.97;5013753;28;20167;-72
2022/04/28 05:05:40;;;;;;;4.63;2.45;;;;;;;7.04;76.28;103079.84;5015235;28;20029;-73
2022/04/28 05:08:06;;;;;;;5.82;2.90;;;;;;;7.03;76.94;103077.22;4999468;28;20048;-73
2022/04/28 05:10:31;;;;;;;4.90;2.90;;;;;;;7.04;77.12;103089.50;4996391;28;20037;-73
2022/04/28 05:12:57;;;;;;;4.65;2.67;;;;;;;7.04;77.67;103084.25;4983020;28;20030;-73
2022/04/28 05:15:22;;;;;;;8.77;3.00;;;;;;;7.07;78.47;103076.34;4988603;28;20037;-73
2022/04/28 05:17:48;;;;;;;8.00;3.22;;;;;;;7.09;78.83;103087.78;4998995;28;20026;-73
2022/04/28 05:20:14;;;;;;;5.30;2.95;;;;;;;7.10;79.13;103088.66;4979410;28;20258;-73
2022/04/28 05:22:39;;;;;;;4.90;2.92;;;;;;;7.11;79.33;103087.78;4999057;28;20385;-73
2022/04/28 05:25:05;;;;;;;4.47;3.25;;;;;;;7.11;79.81;103088.66;4964736;28;20026;-74
2022/04/28 05:27:31;;;;;;;6.63;2.95;;;;;;;7.15;80.64;103098.31;5000634;28;20081;-73
2022/04/28 05:29:56;;;;;;;5.30;2.28;;;;;;;7.16;82.27;103094.84;4982924;28;20159;-73
2022/04/28 05:32:22;;;;;;;3.67;2.42;;;;;;;7.16;82.45;103100.13;4981658;28;20036;-73
2022/04/28 05:34:47;;;;;;;3.33;2.20;;;;;;;7.20;83.15;103109.78;4999766;28;20586;-74
2022/04/28 05:37:14;;;;;;;11.27;2.38;;;;;;;7.22;83.84;103109.78;4999516;28;20740;-74
2022/04/28 05:39:40;;;;;;;4.38;2.08;;;;;;;7.24;83.74;103109.81;4999661;28;20030;-73
2022/04/28 05:42:07;;;;;;;4.15;2.00;;;;;;;7.26;83.88;103116.84;4981298;28;20040;-74
2022/04/28 05:47:19;;;;;;;4.53;2.00;;;;;;;7.29;86.05;103122.13;4999680;28;20064;-72
2022/04/28 05:49:44;;;;;;;3.20;1.70;;;;;;;7.30;86.12;103121.25;4999218;28;20485;-70
2022/04/28 05:52:10;;;;;;;5.13;2.15;;;;;;;7.32;86.70;103123.91;4981743;28;20128;-73
2022/04/28 05:54:36;;;;;;;3.65;1.92;;;;;;;7.32;86.38;103110.72;4999193;28;20100;-72
2022/04/28 05:57:03;;;;;;;4.93;1.70;;;;;;;7.30;87.48;103113.34;4995428;28;20060;-72
2022/04/28 05:59:28;;;;;;;4.35;1.60;;;;;;;7.35;87.06;103121.25;4999981;28;20077;-72
2022/04/28 06:01:54;;;;;;;3.95;1.98;;;;;;;7.36;86.95;103125.69;5000248;28;20112;-72
2022/04/28 06:04:19;;;;;;;7.15;1.80;;;;;;;7.37;87.37;103124.81;4996255;28;20029;-73
2022/04/28 06:06:45;;;;;;;4.07;1.60;;;;;;;7.39;87.51;103123.06;4982017;28;20071;-73
2022/04/28 06:09:10;;;;;;;6.32;2.40;;;;;;;7.42;88.16;103125.69;5000133;28;20449;-72
2022/04/28 06:11:36;;;;;;;6.43;1.90;;;;;;;7.46;88.08;103123.94;4980737;28;20400;-73
2022/04/28 06:14:01;;;;;;;3.63;1.88;;;;;;;7.48;86.92;103138.88;4999202;28;20030;-73
2022/04/28 06:16:28;;;;;;;5.03;1.70;;;;;;;7.53;87.46;103143.31;4998725;28;20048;-73
2022/04/28 06:18:53;;;;;;;2.28;1.60;;;;;;;7.56;87.28;103151.22;4998907;28;20042;-72
2022/04/28 06:21:18;;;;;;;4.20;1.70;;;;;;;7.60;86.75;103147.75;4978480;28;20044;-73
2022/04/28 06:23:45;;;;;;;6.88;1.90;;;;;;;7.62;87.09;103143.34;4998331;28;20038;-73
2022/04/28 06:26:11;;;;;;;3.30;1.85;;;;;;;7.65;86.66;103146.00;4980193;28;20030;-73
2022/04/28 06:28:36;;;;;;;3.80;1.50;;;;;;;7.66;86.50;103150.41;4982121;28;20183;-72
2022/04/28 06:31:02;;;;;;;3.47;1.70;;;;;;;7.74;86.65;103155.72;4981583;28;20120;-73
2022/04/28 06:33:28;;;;;;;3.65;1.52;;;;;;;7.79;85.88;103161.84;4998184;28;20077;-72
2022/04/28 06:35:54;;;;;;;4.20;1.45;;;;;;;7.81;85.81;103161.88;4988426;28;21222;-73
2022/04/28 06:38:19;;;;;;;2.08;1.50;;;;;;;7.83;85.78;103170.66;4983078;28;20033;-73
2022/04/28 06:40:45;;;;;;;6.43;1.80;;;;;;;7.86;84.58;103170.69;5000100;28;20405;-72
2022/04/28 06:43:10;;;;;;;2.38;1.58;;;;;;;7.90;85.47;103171.56;4984544;28;20362;-72
2022/04/28 06:45:37;;;;;;;4.05;1.60;;;;;;;7.99;84.86;103175.13;5000494;28;20175;-80
2022/04/28 06:48:03;;;;;;;5.05;1.80;;;;;;;8.05;84.23;103165.47;4999111;28;20061;-73
2022/04/28 06:50:29;;;;;;;3.85;1.63;;;;;;;8.14;85.41;103173.41;4993299;28;20029;-72
2022/04/28 06:52:54;;;;;;;3.72;1.60;;;;;;;8.22;85.11;103169.00;5002254;28;20562;-72
2022/04/28 06:55:20;;;;;;;2.88;1.75;;;;;;;8.29;84.68;103170.78;5002248;28;20500;-73
2022/04/28 06:57:45;;;;;;;8.00;1.90;;;;;;;8.35;84.02;103172.56;5001520;28;20025;-74
2022/04/28 07:00:11;;;;;;;3.10;1.42;;;;;;;8.38;83.92;103164.63;4983563;28;20512;-73
2022/04/28 07:02:44;;;;;;;4.05;1.50;;;;;;;8.41;83.39;103174.31;5003271;28;20041;-72
2022/04/28 07:05:09;;;;;;;2.28;1.38;;;;;;;8.43;82.90;103170.81;5000704;28;20030;-73
2022/04/28 07:07:35;;;;;;;1.40;1.30;;;;;;;8.47;82.93;103179.59;5001730;28;20045;-73
2022/04/28 07:10:00;;;;;;;3.40;1.50;;;;;;;8.51;82.62;103175.22;5002388;28;20315;-73
2022/04/28 07:12:26;;;;;;;1.70;1.60;;;;;;;8.54;82.34;103178.75;5001981;28;20539;-72
2022/04/28 07:14:51;;;;;;;6.35;1.73;;;;;;;8.59;82.04;103180.50;5001518;28;20031;-72
2022/04/28 07:17:17;;;;;;;2.03;1.45;;;;;;;8.61;82.17;103187.56;5001430;28;20029;-72
2022/04/28 07:19:42;;;;;;;3.40;1.35;;;;;;;8.64;81.31;103187.56;5001446;28;20094;-72
2022/04/28 07:22:08;;;;;;;2.88;1.55;;;;;;;8.69;81.14;103191.09;5001850;28;20277;-72
2022/04/28 07:24:33;;;;;;;5.55;1.58;;;;;;;8.75;81.46;103191.97;5002472;28;20054;-72
2022/04/28 07:26:59;;;;;;;2.70;1.38;;;;;;;8.80;80.41;103198.13;4997880;28;20044;-72
2022/04/28 07:29:25;;;;;;;3.25;1.40;;;;;;;8.83;80.47;103199.00;4998344;28;20033;-73
2022/04/28 07:31:50;;;;;;;2.70;1.20;;;;;;;8.90;80.53;103206.94;4974662;28;20061;-73
2022/04/28 07:34:16;;;;;;;3.33;1.00;;;;;;;8.89;79.36;103199.88;5000364;28;20745;-73
2022/04/28 07:36:42;;;;;;;3.03;1.42;;;;;;;8.89;79.59;103202.53;4983741;28;20101;-73
2022/04/28 07:39:07;;;;;;;2.92;1.20;;;;;;;8.89;79.63;103202.53;5000277;28;20037;-72
2022/04/28 07:41:33;;;;;;;3.97;1.65;;;;;;;8.89;78.73;103208.69;4999623;28;20339;-72
2022/04/28 07:43:58;;;;;;;1.98;0.90;;;;;;;8.84;78.76;103205.19;5000874;28;20037;-72
2022/04/28 07:46:24;;;;;;;2.38;1.00;;;;;;;8.87;79.43;103199.03;4998958;28;20037;-72
2022/04/28 07:48:49;;;;;;;2.47;1.00;;;;;;;8.92;79.12;103202.50;4998374;28;20872;-72
2022/04/28 07:51:15;;;;;;;4.82;1.15;;;;;;;8.95;78.61;103205.16;4995587;28;20573;-72
2022/04/28 07:53:40;;;;;;;2.00;1.00;;;;;;;8.98;78.23;103204.28;5000999;28;20041;-71
2022/04/28 07:56:15;;;;;;;3.55;1.30;;;;;;;9.06;78.08;103211.31;5000334;28;20123;-72
2022/04/28 07:58:44;;;;;;;3.03;1.05;;;;;;;9.16;78.00;103217.47;4984103;28;20041;-72
2022/04/28 08:01:12;;;;;;;1.85;1.00;;;;;;;9.16;77.22;103221.88;4998632;28;20060;-72
2022/04/28 08:03:38;;;;;;;4.35;1.15;;;;;;;9.18;77.63;103230.69;5000188;28;20037;-72
2022/04/28 08:06:04;;;;;;;2.67;1.13;;;;;;;9.20;77.74;103234.19;4997802;28;20180;-72
2022/04/28 08:08:30;;;;;;;6.70;1.40;;;;;;;9.24;77.98;103235.97;4980572;28;20497;-71
2022/04/28 08:10:56;;;;;;;3.92;1.40;;;;;;;9.32;78.26;103241.25;4989782;28;20069;-72
2022/04/28 08:13:21;;;;;;;3.92;1.00;;;;;;;9.39;78.37;103245.63;4987356;28;20092;-72
2022/04/28 08:15:47;;;;;;;4.45;1.10;;;;;;;9.45;77.18;103247.38;4996819;28;20041;-71
2022/04/28 08:18:12;;;;;;;2.97;1.08;;;;;;;9.43;76.43;103249.16;4979263;28;20088;-71
2022/04/28 08:20:41;;;;;;;2.67;1.08;;;;;;;9.40;76.72;103246.50;4979899;28;20733;-71
2022/04/28 08:23:07;;;;;;;4.50;1.20;;;;;;;9.45;76.94;103250.03;4995933;28;20500;-72
2022/04/28 08:25:33;;;;;;;2.83;1.15;;;;;;;9.42;75.85;103256.19;4982305;28;20084;-72
2022/04/28 08:27:58;;;;;;;1.85;1.00;;;;;;;9.36;74.65;103251.81;4998985;28;20707;-72
2022/04/28 08:30:24;;;;;;;3.05;1.10;;;;;;;9.31;74.65;103252.72;4998612;28;20068;-72
2022/04/28 08:32:49;;;;;;;2.17;0.85;;;;;;;9.31;75.17;103258.84;4965427;28;20452;-70
2022/04/28 08:35:15;;;;;;;2.05;0.95;;;;;;;9.46;75.43;103254.41;4963556;28;20103;-70
2022/04/28 08:37:40;;;;;;;2.92;1.10;;;;;;;9.57;75.36;103260.56;4998159;28;20272;-71
2022/04/28 08:40:07;;;;;;;2.20;1.05;;;;;;;9.69;75.47;103264.09;4999204;28;20100;-73
2022/04/28 08:42:36;;;;;;;4.22;1.08;;;;;;;9.72;74.19;103258.75;4985627;28;20049;-70
2022/04/28 08:45:03;;;;;;;6.45;1.80;;;;;;;9.68;74.85;103251.72;4981344;28;20099;-71
2022/04/28 08:47:29;;;;;;;2.17;1.20;;;;;;;9.73;74.61;103255.22;4997365;28;20029;-72
2022/04/28 08:49:56;;;;;;;1.27;1.00;;;;;;;9.75;73.33;103253.47;4998660;28;20037;-71
2022/04/28 08:52:21;;;;;;;3.20;1.10;;;;;;;9.71;74.15;103262.31;4995832;28;20055;-71
2022/04/28 08:54:47;;;;;;;4.25;1.40;;;;;;;9.63;74.05;103262.31;4989132;28;20059;-73
2022/04/28 08:57:13;;;;;;;3.17;1.08;;;;;;;9.67;74.38;103268.47;4998713;28;20041;-71
2022/04/28 08:59:40;;;;;;;2.55;1.10;;;;;;;9.72;74.01;103272.88;4993027;28;20481;-72
2022/04/28 09:02:07;;;;;;;3.80;1.05;;;;;;;9.71;73.12;103262.31;4981371;28;20120;-72
2022/04/28 09:04:33;;;;;;;2.38;1.10;;;;;;;9.69;73.37;103274.66;4998644;28;20030;-71
2022/04/28 09:06:59;;;;;;;4.03;1.30;;;;;;;9.75;73.91;103274.66;4996926;28;20492;-71
2022/04/28 09:09:27;;;;;;;4.10;1.20;;;;;;;9.74;73.81;103273.75;4999198;28;20037;-71
2022/04/28 09:11:57;;;;;;;3.17;1.20;;;;;;;9.68;73.08;103271.13;4996895;28;20030;-71
2022/04/28 09:14:23;;;;;;;2.97;1.02;;;;;;;9.69;73.30;103274.66;4997960;28;20055;-72
2022/04/28 09:16:59;;;;;;;2.95;1.20;;;;;;;9.62;73.11;103284.38;4983025;28;20068;-72
2022/04/28 09:19:27;;;;;;;6.78;1.30;;;;;;;9.62;73.12;103282.63;4998261;28;20108;-72
2022/04/28 09:21:54;;;;;;;3.05;1.10;;;;;;;9.62;72.84;103279.06;5000288;28;20491;-71
2022/04/28 09:24:24;;;;;;;4.55;1.20;;;;;;;9.60;72.24;103279.06;4999463;28;20072;-71
2022/04/28 09:26:53;;;;;;;6.30;1.33;;;;;;;9.57;72.63;103279.09;4999269;28;20034;-73
2022/04/28 09:29:19;;;;;;;2.70;1.40;;;;;;;9.58;73.00;103283.50;4998572;28;20365;-72
2022/04/28 09:31:46;;;;;;;3.75;1.13;;;;;;;9.64;73.09;103275.53;4997921;28;20029;-72
2022/04/28 09:34:13;;;;;;;3.65;1.20;;;;;;;9.78;73.01;103280.81;4999139;28;20030;-72
2022/04/28 09:36:40;;;;;;;2.55;1.20;;;;;;;9.88;72.71;103278.13;4997338;28;20689;-72
2022/04/28 09:39:07;;;;;;;3.00;1.30;;;;;;;9.89;72.45;103275.47;4996075;28;20042;-72
2022/04/28 09:44:21;;;;;;;1.83;1.42;;;;;;;9.90;72.25;103269.28;4982170;28;20037;-72
2022/04/28 09:46:48;;;;;;;1.88;1.25;;;;;;;9.97;71.91;103271.91;4981491;28;20026;-71
2022/04/28 09:49:17;;;;;;;4.43;1.45;;;;;;;10.03;72.27;103266.59;4999526;28;20042;-72
2022/04/28 09:51:43;;;;;;;3.38;1.30;;;;;;;10.16;72.57;103267.41;4998998;28;20033;-71
2022/04/28 09:54:11;;;;;;;2.25;1.27;;;;;;;10.23;72.38;103271.78;4999936;28;20428;-71
2022/04/28 09:56:38;;;;;;;2.97;1.40;;;;;;;10.32;72.40;103271.75;4997990;28;20021;-71
2022/04/28 09:59:05;;;;;;;2.38;1.27;;;;;;;10.40;72.14;103269.03;4999164;28;20037;-72
2022/04/28 10:01:33;;;;;;;1.85;1.10;;;;;;;10.40;72.31;103266.41;4999053;28;20033;-72
2022/04/28 10:03:58;;;;;;;2.20;1.25;;;;;;;10.48;71.85;103270.78;4999740;28;20051;-72
2022/04/28 10:06:25;;;;;;;4.32;1.50;;;;;;;10.56;71.94;103263.66;4974052;28;20496;-71
2022/04/28 10:08:51;;;;;;;1.85;1.20;;;;;;;10.68;71.02;103270.69;4999983;28;20129;-72
2022/04/28 10:11:21;;;;;;;2.33;1.25;;;;;;;10.73;70.52;103268.84;5002627;28;20037;-71
2022/04/28 10:13:49;;;;;;;1.58;1.10;;;;;;;10.83;71.34;103267.91;5002065;28;20443;-71
2022/04/28 10:16:15;;;;;;;2.22;1.40;;;;;;;10.95;70.78;103269.56;5002610;28;20025;-71
2022/04/28 10:19:01;;;;;;;2.03;1.25;;;;;;;10.89;69.53;103264.31;4972867;28;20082;-73
2022/04/28 10:21:55;;;;;;;4.13;1.33;;;;;;;11.02;69.24;103261.56;4980586;28;20576;-74
2022/04/28 10:33:02;;;;;;;4.43;1.20;;;;;;;10.86;69.29;103267.88;4999870;28;20088;-75
2022/04/28 10:35:33;;;;;;;3.47;1.23;;;;;;;10.86;69.83;103269.66;5002539;28;20414;-74
2022/04/28 10:38:10;;;;;;;4.28;1.85;;;;;;;10.95;68.77;103271.34;4983400;28;20045;-73
2022/04/28 10:41:01;;;;;;;6.00;1.40;;;;;;;10.99;68.65;103265.13;5001596;28;20044;-72
2022/04/28 10:43:33;;;;;;;2.10;1.50;;;;;;;11.07;69.08;103270.38;4983727;28;20061;-73
2022/04/28 10:46:01;;;;;;;2.17;1.27;;;;;;;10.98;68.42;103277.50;4998731;28;20041;-73
2022/04/28 10:48:30;;;;;;;6.05;1.80;;;;;;;10.97;68.97;103280.16;4978131;28;20033;-72
2022/04/28 10:51:11;;;;;;;4.32;1.40;;;;;;;11.01;68.19;103281.91;4983097;28;20164;-73
2022/04/28 10:53:58;;;;;;;3.10;1.38;;;;;;;11.02;69.01;103277.47;5001656;28;21047;-73
2022/04/28 10:56:57;;;;;;;4.72;1.65;;;;;;;11.05;68.68;103277.47;5001820;28;20060;-73
2022/04/28 10:59:25;;;;;;;1.73;1.20;;;;;;;11.12;69.29;103284.47;5001706;28;20054;-73
2022/04/28 11:01:51;;;;;;;3.60;1.45;;;;;;;11.06;68.77;103279.22;5000478;28;20030;-73
2022/04/28 11:04:21;;;;;;;2.15;1.38;;;;;;;11.11;69.14;103288.88;4981840;28;20034;-73
2022/04/28 11:06:57;;;;;;;3.20;1.55;;;;;;;11.18;68.98;103284.41;4982181;28;20470;-73
2022/04/28 11:09:34;;;;;;;2.53;1.27;;;;;;;11.14;68.21;103294.19;4999770;28;20480;-74
2022/04/28 11:12:11;;;;;;;3.88;1.80;;;;;;;11.18;67.70;103287.06;4982973;28;20065;-73
2022/04/28 11:15:00;;;;;;;6.68;1.45;;;;;;;11.13;67.35;103291.53;4983114;28;20195;-73
2022/04/28 11:17:28;;;;;;;2.92;1.30;;;;;;;11.04;68.71;103287.19;4983244;28;20037;-73
2022/04/28 11:19:54;;;;;;;4.43;1.60;;;;;;;11.07;68.43;103291.56;4984986;28;20489;-73
2022/04/28 11:22:20;;;;;;;3.60;1.55;;;;;;;11.11;68.62;103293.31;4992608;28;20037;-73
2022/04/28 11:24:48;;;;;;;4.13;1.50;;;;;;;11.22;67.74;103285.28;5001203;28;21454;-74
2022/04/28 11:27:18;;;;;;;3.58;1.30;;;;;;;11.16;67.49;103288.84;4966909;28;20094;-73
2022/04/28 11:29:45;;;;;;;2.75;1.50;;;;;;;11.08;68.38;103288.91;5001554;28;20113;-73
2022/04/28 11:32:11;;;;;;;1.83;1.30;;;;;;;11.14;68.15;103293.28;4994159;28;20124;-73
2022/04/28 11:34:37;;;;;;;6.13;1.45;;;;;;;11.15;67.30;103281.78;5002173;28;20200;-79
2022/04/28 11:37:38;;;;;;;1.58;1.42;;;;;;;11.21;66.87;103283.47;4999738;28;20049;-77
2022/04/28 11:40:06;;;;;;;2.83;1.70;;;;;;;11.31;67.99;103287.81;4905501;29;20365;-73
2022/04/28 11:42:33;;;;;;;2.22;1.40;;;;;;;11.53;68.07;103291.16;4982056;28;20435;-73
2022/04/28 11:45:00;;;;;;;3.38;1.55;;;;;;;11.61;66.79;103287.53;5001168;28;20170;-73
2022/04/28 11:47:27;;;;;;;2.50;1.60;;;;;;;11.46;67.45;103288.56;4993441;28;20647;-73
2022/04/28 11:49:57;;;;;;;2.33;1.30;;;;;;;11.44;66.59;103285.91;4983957;28;20037;-74
2022/04/28 11:52:25;;;;;;;3.50;1.58;;;;;;;11.27;67.01;103292.28;5001438;28;20137;-73
2022/04/28 11:55:03;;;;;;;3.75;1.58;;;;;;;11.27;67.45;103281.66;5002250;28;20040;-74
2022/04/28 11:57:30;;;;;;;2.63;1.73;;;;;;;11.33;67.52;103277.22;5000616;28;20033;-74
2022/04/28 11:59:57;;;;;;;4.10;1.48;;;;;;;11.35;67.46;103283.38;4998264;28;20058;-73